Terminal Aerodrome Forecast
Issued by NWS Wakefield, VA

Home | Current Version | Previous Version | Text Only | Print | Product List | Glossary On
Versions: 1 2 3 4 5 6 7 8 9 10 11 12 13 14 15 16 17 18 19 20 21 22
000
FTUS41 KAKQ 221700
TAFECG
TAF
KECG 221738Z 2218/2318 30012G20KT 6SM BR BKN018 OVC050
     FM230000 31014G23KT P6SM BKN028
     FM230600 30013G20KT P6SM BKN050
     FM231400 30016G22KT P6SM SCT050=

USA.gov is the U.S. government's official web portal to all federal, state and local government web resources and services.